Oatmeal, Texas
Current Conditions -  °F | °C
As of 4:53 AM on Monday 22 Dec 2014 (Local Time) from KBMQ Reporting Station
Overcast Overcast  
Wind Chill: 55°   Ceiling: 1300
Heat Index: 55°   Visibility: 10mi
Dew Point: 51°   Wind: 7mph
Humidity: 86%   Direction: 180°S
Pressure: 29.72"   Gusts: NA
Location:  30.7452°N, 98.043°W
Report Text: KBMQ 221053Z AUTO 18006KT 10SM OVC013 13/11 A2972 RMK AO2 SLP056 T01280106
Loading
Personal Weather Stations






























Interactive Weather Map New forecast layout! Learn more

10-Day Weather Forecast

Advertisements
Track Severe Weather on mobile